AirNav   Get Bose SoundSport FEEE
 
 1609 users online  

6NC3 Eastover Air Ranch Airport
Fayetteville, North Carolina, USA

GOING TO FAYETTEVILLE?


FAA INFORMATION EFFECTIVE 18 JULY 2019

Location

FAA Identifier: 6NC3
Lat/Long: 35-05-11.0000N / 078-46-20.0000W
35-05.183333N / 078-46.333333W
35.0863889 / -78.7722222
(estimated)
Elevation: 160 ft. / 48.8 m (surveyed)
Variation: 07W (1990)
From city: 6 miles NE of FAYETTEVILLE, NC
Time zone: UTC -4 (UTC -5 during Standard Time)
Zip code: 28301

Airport Operations

Airport use: Private use. Permission required prior to landing
Activation date: 07/1992
Control tower: no
ARTCC: WASHINGTON CENTER
FSS: RALEIGH FLIGHT SERVICE STATION
Attendance: UNATNDD
Wind indicator: yes
Segmented circle: no

Airport Communications

WX ASOS at FAY (8 nm SW): 121.25 (910-484-1546)
WX AWOS-3 at HRJ (18 nm N): 119.025 (910-814-3946)

Nearby radio navigation aids

VOR radial/distance  VOR name  Freq  Var
FAYr044/7.9FAYETTEVILLE VOR/DME108.8004W

 
NDB name  Hdg/Dist  Freq  Var  ID
FORT BRAGG155/3.739307WFGP ..-. --. .--.
POPE140/12.333807WPOB .--. --- -...
CLINTON297/21.241209WCTZ -.-. - --..
HARNETT201/21.341708WHQT .... --.- -
ROBESON035/31.735908WRSY .-. ... -.--
MACKALL090/35.227806WHFF .... ..-. ..-.
ELIZABETHTOWN347/35.839808WTGQ - --. --.-

Airport Services

Runway Information

Runway 4/22

Dimensions: 3000 x 300 ft. / 914 x 91 m
Surface: turf
RUNWAY 4  RUNWAY 22
Traffic pattern: leftleft

Airport Ownership and Management from official FAA records

Ownership: Privately-owned
Owner: K-LAND CORPORATION
RT 16, BOX 190
FAYETTEVILLE, NC 28301
Phone 910-483-7649
Manager: KENNETH KUBINSKI
RT 16, BOX 190
FAYETTEVILLE, NC 28301
Phone 910-323-1596

Airport Operational Statistics

Aircraft based on the field: 4
Single engine airplanes: 4
    

Additional Remarks

FOR CD CTC WASHINGTON ARTCC AT 703-771-3587.

Instrument Procedures

There are no published instrument procedures at 6NC3.

Some nearby airports with instrument procedures:

KFAY - Fayetteville Regional Airport/Grannis Field (8 nm SW)
KFBG - Simmons Army Airfield (9 nm W)
KPOB - Pope Army Airfield (13 nm NW)
KHRJ - Harnett Regional Jetport Airport (18 nm N)
5W4 - P K Airpark (21 nm W)
 
Loc | Ops | Rwys | IFR | FBO | Links
Com | Nav | Svcs | Stats | Notes
Area around 6NC3 (Eastover Air Ranch Airport)
 
Road maps at: MapQuest Bing Google
 
Aerial photo
No photo
 
Sectional chart

 
Airport distance calculator
Flying to Eastover Air Ranch Airport? Find the distance to fly.

From to 6NC3

Sunrise and sunset
Times for 22-Jul-2019
 Local
(UTC-4)
 Zulu
(UTC)
Morning civil twilight05:4909:49
Sunrise06:1810:18
Sunset20:2500:25
Evening civil twilight20:5400:54

Current date and time
Zulu (UTC)  22-Jul-2019 17:34:22
Local (UTC-4)  22-Jul-2019 13:34:22
 
METAR
KFBG 
7nm W 
221656Z AUTO 22012G19KT 10SM FEW200 34/21 A2996 RMK AO2 SLP145 T03400210
KFAY 
8nm SW 
221653Z 22011G22KT 10SM SCT050 35/22 A2997 RMK AO2 SLP140 T03500222
KPOB 
13nm W 
221656Z AUTO 24013KT 10SM BKN050 34/22 A2996 RMK AO2 SLP146 T03370218 $
KHRJ 
18nm N 
211915Z AUTO 22008KT 10SM SCT050 35/21 A2996 RMK AO2 T03540208
TAF
KFBG 
7nm W 
220900Z 2209/2315 21006KT 9999 FEW200 QNH2994INS BECMG 2215/2216 22012G18KT 9999 FEW060 QNH2990INS BECMG 2222/2223 22015G20KT 9000 -SHRA SCT060 QNH2987INS TEMPO 2223/2303 23020G35KT 8000 -TSRA BKN030CB BKN060 BECMG 2302/2303 VRB06KT 9999 NSW SCT040 510103 QNH2989INS TX36/2220Z TN24/2211Z
KFAY 
8nm SW 
221136Z 2212/2312 22008KT P6SM SKC FM221500 20012G18KT P6SM SCT250 FM221800 22013G23KT P6SM SCT050 BKN250 TEMPO 2219/2223 VRB15G30KT 2SM TSRA BKN030CB FM230100 23007KT P6SM BKN200
KPOB 
13nm W 
220900Z 2209/2315 21006KT 9999 FEW200 QNH2994INS BECMG 2215/2216 22012G18KT 9999 FEW060 QNH2990INS BECMG 2222/2223 22015G20KT 9000 -SHRA SCT060 QNH2987INS TEMPO 2223/2303 23020G35KT 8000 -TSRA BKN030CB BKN060 BECMG 2302/2303 VRB06KT 9999 NSW SCT040 510103 QNH2989INS TX36/2220Z TN24/2211Z
NOTAMs
Click for the latest NOTAMs
NOTAMs are issued by the DoD/FAA and will open in a separate window not controlled by AirNav.

 

 
 

Would you like to see your business listed on this page?

 If your business provides an interesting product or service to pilots, flight crews, aircraft, or users of the Eastover Air Ranch Airport, you should consider listing it here.  To start the listing process, click on the button below
 
Add a business
 

Other Pages about Eastover Air Ranch Airport

Update a link
 
Copyright © AirNav, LLC. All rights reserved. Privacy Policy  Contact